createdAt,value
2022-09-23T00:00:47.360Z,10.32
2022-09-23T00:03:15.342Z,10.14
2022-09-23T00:05:41.501Z,10.06
2022-09-23T00:08:10.453Z,10.12
2022-09-23T00:10:38.870Z,10.18
2022-09-23T00:13:05.219Z,10.20
2022-09-23T00:15:32.987Z,10.12
2022-09-23T00:18:00.952Z,10.24
2022-09-23T00:20:27.647Z,10.20
2022-09-23T00:22:53.556Z,10.20
2022-09-23T00:25:20.096Z,10.40
2022-09-23T00:27:45.887Z,10.40
2022-09-23T00:30:11.793Z,10.40
2022-09-23T00:32:37.558Z,10.57
2022-09-23T00:35:04.033Z,10.54
2022-09-23T00:37:30.632Z,10.42
2022-09-23T00:39:56.423Z,10.37
2022-09-23T00:42:24.007Z,10.40
2022-09-23T00:44:55.461Z,10.56
2022-09-23T00:47:28.542Z,10.53
2022-09-23T00:50:23.595Z,10.57
2022-09-23T00:52:56.078Z,10.60
2022-09-23T00:55:27.525Z,10.47
2022-09-23T00:57:56.948Z,10.37
2022-09-23T01:00:23.711Z,10.39
2022-09-23T01:02:50.533Z,10.47
2022-09-23T01:05:17.491Z,10.48
2022-09-23T01:07:44.322Z,10.51
2022-09-23T01:10:13.503Z,10.59
2022-09-23T01:13:05.322Z,10.63
2022-09-23T01:15:40.131Z,10.61
2022-09-23T01:18:21.604Z,10.59
2022-09-23T01:21:16.957Z,10.65
2022-09-23T01:24:19.841Z,10.71
2022-09-23T01:27:04.873Z,10.64
2022-09-23T01:29:56.803Z,10.47
2022-09-23T01:32:43.797Z,10.62
2022-09-23T01:35:21.901Z,10.72
2022-09-23T01:37:51.661Z,10.69
2022-09-23T01:40:40.217Z,10.59
2022-09-23T01:43:12.736Z,10.62
2022-09-23T01:45:43.571Z,10.64
2022-09-23T01:48:13.543Z,10.63
2022-09-23T01:50:57.876Z,10.63
2022-09-23T01:53:35.999Z,10.61
2022-09-23T01:56:08.544Z,10.61
2022-09-23T01:58:54.314Z,10.67
2022-09-23T02:01:29.287Z,10.72
2022-09-23T02:04:09.397Z,10.77
2022-09-23T02:06:45.777Z,10.59
2022-09-23T02:09:15.019Z,10.58
2022-09-23T02:11:45.367Z,10.51
2022-09-23T02:14:14.747Z,10.49
2022-09-23T02:16:50.121Z,10.60
2022-09-23T02:19:26.359Z,10.56
2022-09-23T02:22:02.477Z,10.61
2022-09-23T02:24:32.138Z,10.58
2022-09-23T02:27:04.199Z,10.59
2022-09-23T02:29:38.373Z,10.57
2022-09-23T02:32:20.755Z,10.65
2022-09-23T02:34:46.452Z,10.77
2022-09-23T02:37:25.511Z,10.81
2022-09-23T02:39:56.327Z,10.71
2022-09-23T02:42:30.332Z,10.39
2022-09-23T02:44:56.202Z,10.37
2022-09-23T02:47:26.644Z,10.38
2022-09-23T02:49:52.790Z,10.47
2022-09-23T02:52:18.612Z,10.33
2022-09-23T02:54:44.607Z,10.61
2022-09-23T02:57:10.417Z,10.53
2022-09-23T02:59:36.550Z,10.64
2022-09-23T03:02:20.089Z,10.51
2022-09-23T03:05:17.372Z,10.43
2022-09-23T03:07:58.928Z,10.52
2022-09-23T03:10:36.918Z,10.43
2022-09-23T03:13:14.793Z,10.36
2022-09-23T03:15:51.340Z,10.39
2022-09-23T03:18:30.867Z,10.47
2022-09-23T03:21:02.440Z,10.42
2022-09-23T03:23:35.268Z,10.39
2022-09-23T03:26:07.776Z,10.37
2022-09-23T03:28:37.460Z,10.47
2022-09-23T03:31:04.131Z,10.50
2022-09-23T03:33:31.011Z,10.48
2022-09-23T03:36:20.765Z,10.36
2022-09-23T03:38:51.552Z,10.35
2022-09-23T03:41:28.731Z,10.42
2022-09-23T03:43:58.011Z,10.44
2022-09-23T03:46:26.645Z,10.40
2022-09-23T03:49:04.678Z,10.24
2022-09-23T03:51:30.422Z,10.20
2022-09-23T03:53:56.208Z,10.26
2022-09-23T03:56:21.948Z,10.20
2022-09-23T03:58:48.166Z,10.36
2022-09-23T04:01:14.189Z,10.48
2022-09-23T04:03:40.718Z,10.29
2022-09-23T04:06:06.687Z,10.32
2022-09-23T04:08:32.707Z,10.33
2022-09-23T04:11:00.830Z,10.33
2022-09-23T04:13:27.835Z,10.14
2022-09-23T04:15:53.596Z,10.24
2022-09-23T04:18:20.451Z,10.38
2022-09-23T04:20:46.593Z,10.29
2022-09-23T04:23:12.480Z,10.28
2022-09-23T04:25:48.283Z,10.33
2022-09-23T04:28:14.289Z,10.20
2022-09-23T04:30:42.918Z,10.13
2022-09-23T04:33:10.381Z,10.18
2022-09-23T04:35:40.363Z,10.23
2022-09-23T04:38:06.457Z,10.27
2022-09-23T04:40:32.414Z,10.07
2022-09-23T04:42:58.257Z,10.18
2022-09-23T04:45:24.165Z,10.04
2022-09-23T04:47:49.912Z,9.97
2022-09-23T04:50:15.893Z,9.89
2022-09-23T04:52:41.715Z,9.85
2022-09-23T04:55:11.211Z,9.99
2022-09-23T04:57:37.228Z,9.97
2022-09-23T05:00:03.627Z,10.02
2022-09-23T05:02:30.284Z,9.93
2022-09-23T05:04:56.057Z,9.85
2022-09-23T05:07:21.782Z,9.86
2022-09-23T05:09:47.797Z,9.87
2022-09-23T05:12:13.527Z,9.88
2022-09-23T05:14:39.304Z,9.80
2022-09-23T05:17:05.382Z,9.84
2022-09-23T05:19:31.185Z,9.82
2022-09-23T05:21:56.952Z,9.85
2022-09-23T05:24:26.845Z,9.97
2022-09-23T05:26:53.488Z,9.80
2022-09-23T05:29:19.266Z,9.91
2022-09-23T05:31:45.183Z,10.05
2022-09-23T05:34:10.976Z,9.99
2022-09-23T05:36:38.619Z,10.08
2022-09-23T05:39:06.143Z,10.00
2022-09-23T05:41:33.101Z,10.00
2022-09-23T05:43:59.042Z,10.09
2022-09-23T05:46:27.382Z,10.04
2022-09-23T05:48:59.857Z,10.03
2022-09-23T05:51:30.958Z,10.15
2022-09-23T05:53:58.146Z,10.26
2022-09-23T05:56:26.125Z,10.18
2022-09-23T05:58:53.494Z,10.14
2022-09-23T06:01:21.580Z,10.14
2022-09-23T06:03:48.521Z,9.95
2022-09-23T06:06:17.250Z,10.00
2022-09-23T06:08:44.362Z,10.15
2022-09-23T06:11:11.551Z,10.24
2022-09-23T06:13:38.572Z,10.36
2022-09-23T06:16:13.050Z,10.47
2022-09-23T06:18:44.117Z,10.36
2022-09-23T06:21:13.628Z,10.42
2022-09-23T06:23:41.425Z,10.53
2022-09-23T06:26:09.857Z,10.53
2022-09-23T06:28:37.687Z,10.62
2022-09-23T06:31:12.301Z,10.73
2022-09-23T06:33:39.041Z,10.47
2022-09-23T06:36:06.000Z,10.48
2022-09-23T06:38:33.483Z,10.43
2022-09-23T06:41:01.275Z,10.55
2022-09-23T06:43:27.130Z,10.52
2022-09-23T06:45:58.002Z,10.75
2022-09-23T06:48:24.611Z,10.77
2022-09-23T06:50:52.955Z,10.87
2022-09-23T06:53:23.332Z,10.83
2022-09-23T06:56:04.963Z,10.82
2022-09-23T06:58:32.011Z,10.85
2022-09-23T07:01:02.660Z,10.88
2022-09-23T07:03:30.180Z,10.92
2022-09-23T07:05:56.189Z,10.85
2022-09-23T07:08:23.115Z,11.02
2022-09-23T07:10:58.962Z,11.16
2022-09-23T07:13:25.138Z,11.17
2022-09-23T07:15:52.170Z,11.21
2022-09-23T07:18:18.975Z,11.35
2022-09-23T07:20:45.815Z,11.48
2022-09-23T07:23:12.206Z,11.47
2022-09-23T07:25:38.407Z,11.58
2022-09-23T07:28:04.701Z,11.65
2022-09-23T07:30:30.519Z,11.71
2022-09-23T07:32:56.308Z,11.72
2022-09-23T07:35:22.215Z,11.79
2022-09-23T07:37:49.687Z,11.81
2022-09-23T07:40:15.553Z,11.81
2022-09-23T07:42:41.391Z,11.79
2022-09-23T07:45:08.315Z,11.98
2022-09-23T07:47:34.692Z,12.09
2022-09-23T07:50:00.454Z,12.28
2022-09-23T07:52:26.216Z,12.31
2022-09-23T07:54:52.083Z,12.22
2022-09-23T07:57:17.922Z,12.18
2022-09-23T07:59:43.707Z,12.13
2022-09-23T08:02:11.510Z,12.33
2022-09-23T08:04:37.353Z,12.43
2022-09-23T08:07:05.049Z,12.48
2022-09-23T08:09:41.003Z,12.63
2022-09-23T08:12:11.631Z,12.81
2022-09-23T08:14:41.459Z,12.89
2022-09-23T08:17:07.880Z,13.05
2022-09-23T08:19:33.748Z,13.02
2022-09-23T08:21:59.562Z,13.15
2022-09-23T08:24:25.790Z,13.32
2022-09-23T08:26:53.156Z,13.44
2022-09-23T08:29:21.679Z,13.68
2022-09-23T08:31:49.069Z,13.67
2022-09-23T08:34:17.000Z,13.90
2022-09-23T08:36:42.866Z,13.92
2022-09-23T08:39:12.661Z,14.05
2022-09-23T08:41:42.896Z,14.25
2022-09-23T08:44:20.805Z,14.01
2022-09-23T08:46:54.042Z,14.03
2022-09-23T08:49:29.935Z,14.21
2022-09-23T08:51:59.348Z,14.50
2022-09-23T08:54:30.048Z,14.56
2022-09-23T08:56:59.014Z,14.45
2022-09-23T08:59:37.254Z,14.50
2022-09-23T09:02:15.872Z,14.21
2022-09-23T09:04:44.506Z,14.11
2022-09-23T09:10:17.956Z,14.14
2022-09-23T09:12:50.079Z,14.29
2022-09-23T09:15:20.606Z,14.66
2022-09-23T09:17:59.164Z,14.53
2022-09-23T09:20:50.995Z,14.69
2022-09-23T09:23:31.530Z,14.79
2022-09-23T09:26:00.972Z,14.56
2022-09-23T09:28:48.252Z,14.83
2022-09-23T09:31:37.137Z,14.85
2022-09-23T09:34:12.529Z,14.78
2022-09-23T09:36:48.164Z,14.61
2022-09-23T09:39:14.901Z,14.56
2022-09-23T09:41:51.341Z,14.65
2022-09-23T09:44:46.074Z,14.89
2022-09-23T09:47:39.780Z,15.07
2022-09-23T09:50:10.373Z,14.94
2022-09-23T09:52:40.068Z,15.16
2022-09-23T09:55:11.656Z,15.28
2022-09-23T09:57:48.280Z,15.39
2022-09-23T10:00:25.937Z,15.50
2022-09-23T10:02:54.829Z,15.68
2022-09-23T10:05:33.466Z,15.79
2022-09-23T10:08:35.620Z,15.98
2022-09-23T10:11:03.132Z,16.04
2022-09-23T10:13:30.415Z,15.89
2022-09-23T10:16:03.103Z,15.75
2022-09-23T10:18:47.374Z,15.65
2022-09-23T10:21:16.094Z,15.62
2022-09-23T10:23:44.795Z,15.63
2022-09-23T10:26:13.231Z,15.65
2022-09-23T10:28:50.004Z,15.48
2022-09-23T10:31:25.199Z,15.66
2022-09-23T10:33:54.775Z,15.59
2022-09-23T10:36:20.883Z,15.60
2022-09-23T10:38:54.549Z,15.39
2022-09-23T10:41:53.909Z,15.66
2022-09-23T10:44:53.396Z,15.66
2022-09-23T10:47:40.879Z,15.55
2022-09-23T10:50:38.886Z,15.83
2022-09-23T10:53:27.752Z,16.19
2022-09-23T10:56:14.031Z,16.65
2022-09-23T10:59:17.928Z,16.21
2022-09-23T11:02:08.457Z,16.52
2022-09-23T11:04:53.899Z,17.17
2022-09-23T11:07:43.635Z,18.42
2022-09-23T11:10:48.967Z,18.37
2022-09-23T11:13:22.565Z,18.24
2022-09-23T11:15:54.105Z,18.04
2022-09-23T11:18:25.795Z,18.45
2022-09-23T11:21:31.275Z,19.40
2022-09-23T11:24:27.538Z,19.80
2022-09-23T11:27:15.323Z,19.24
2022-09-23T11:30:13.482Z,19.99
2022-09-23T11:33:13.305Z,19.37
2022-09-23T11:36:05.943Z,19.98
2022-09-23T11:38:45.592Z,20.15
2022-09-23T11:41:25.138Z,20.16
2022-09-23T11:43:58.042Z,20.69
2022-09-23T11:46:29.581Z,21.09
2022-09-23T11:49:09.048Z,21.04
2022-09-23T11:52:04.744Z,21.59
2022-09-23T11:54:45.832Z,22.12
2022-09-23T11:57:48.926Z,22.12
2022-09-23T12:00:15.363Z,21.65
2022-09-23T12:03:00.290Z,21.64
2022-09-23T12:05:41.035Z,21.14
2022-09-23T12:08:12.206Z,20.78
2022-09-23T12:10:51.417Z,21.23
2022-09-23T12:13:33.588Z,21.10
2022-09-23T12:16:28.485Z,21.47
2022-09-23T12:19:10.386Z,21.10
2022-09-23T12:22:28.700Z,20.70
2022-09-23T12:25:07.884Z,20.18
2022-09-23T12:27:38.698Z,19.74
2022-09-23T12:30:31.433Z,19.02
2022-09-23T12:33:27.965Z,18.45
2022-09-23T12:36:01.225Z,18.07
2022-09-23T12:38:39.685Z,17.77
2022-09-23T12:41:36.876Z,17.34
2022-09-23T12:44:14.805Z,17.48
2022-09-23T12:46:44.711Z,17.71
2022-09-23T12:49:28.908Z,18.41
2022-09-23T12:52:12.866Z,18.94
2022-09-23T12:54:40.788Z,18.90
2022-09-23T12:57:21.976Z,18.42
2022-09-23T12:59:50.488Z,18.90
2022-09-23T13:02:31.381Z,18.58
2022-09-23T13:05:16.158Z,18.98
2022-09-23T13:07:46.583Z,18.76
2022-09-23T13:10:30.055Z,18.71
2022-09-23T13:12:57.314Z,18.87
2022-09-23T13:15:29.894Z,18.56
2022-09-23T13:18:20.375Z,18.80
2022-09-23T13:20:56.106Z,18.55
2022-09-23T13:23:32.546Z,18.87
2022-09-23T13:26:11.415Z,19.38
2022-09-23T13:28:55.322Z,19.24
2022-09-23T13:31:21.415Z,19.40
2022-09-23T13:33:58.865Z,18.86
2022-09-23T13:36:25.046Z,19.04
2022-09-23T13:38:50.818Z,18.90
2022-09-23T13:41:23.541Z,18.46
2022-09-23T13:43:58.060Z,18.57
2022-09-23T13:46:30.327Z,18.53
2022-09-23T13:48:56.284Z,18.76
2022-09-23T13:51:32.796Z,18.70
2022-09-23T13:54:00.919Z,18.73
2022-09-23T13:56:29.658Z,18.77
2022-09-23T13:59:24.227Z,18.48
2022-09-23T14:01:50.081Z,18.14
2022-09-23T14:04:23.863Z,17.65
2022-09-23T14:06:49.726Z,17.49
2022-09-23T14:09:17.478Z,17.16
2022-09-23T14:11:43.485Z,17.02
2022-09-23T14:14:14.180Z,16.93
2022-09-23T14:16:41.586Z,16.93
2022-09-23T14:19:16.083Z,16.95
2022-09-23T14:21:42.229Z,16.75
2022-09-23T14:24:17.350Z,16.58
2022-09-23T14:26:47.149Z,16.42
2022-09-23T14:29:17.183Z,16.30
2022-09-23T14:31:55.965Z,16.25
2022-09-23T14:34:40.976Z,16.34
2022-09-23T14:37:54.294Z,16.28
2022-09-23T14:40:25.466Z,16.11
2022-09-23T14:43:25.576Z,16.13
2022-09-23T14:46:00.216Z,16.09
2022-09-23T14:48:34.415Z,16.07
2022-09-23T14:51:02.992Z,16.01
2022-09-23T14:53:39.044Z,15.99
2022-09-23T14:56:12.943Z,16.09
2022-09-23T14:58:57.975Z,15.96
2022-09-23T15:01:32.473Z,15.90
2022-09-23T15:04:11.188Z,15.90
2022-09-23T15:06:39.633Z,15.85
2022-09-23T15:09:08.951Z,15.84
2022-09-23T15:11:35.380Z,15.91
2022-09-23T15:14:19.603Z,15.68
2022-09-23T15:16:48.691Z,15.69
2022-09-23T15:19:19.733Z,15.76
2022-09-23T15:21:49.993Z,15.63
2022-09-23T15:24:41.647Z,15.70
2022-09-23T15:27:16.360Z,15.64
2022-09-23T15:29:42.135Z,15.61
2022-09-23T15:32:07.970Z,15.64
2022-09-23T15:34:33.850Z,15.66
2022-09-23T15:37:00.229Z,15.55
2022-09-23T15:39:35.522Z,15.66
2022-09-23T15:42:01.988Z,15.63
2022-09-23T15:44:29.178Z,15.50
2022-09-23T15:46:59.201Z,15.40
2022-09-23T15:49:33.406Z,15.29
2022-09-23T15:52:00.329Z,15.26
2022-09-23T15:54:27.955Z,15.10
2022-09-23T15:56:54.526Z,15.07
2022-09-23T15:59:20.801Z,15.07
2022-09-23T16:01:47.162Z,15.07
2022-09-23T16:04:15.893Z,15.02
2022-09-23T16:06:43.776Z,15.04
2022-09-23T16:09:12.579Z,15.03
2022-09-23T16:11:41.703Z,14.99
2022-09-23T16:14:13.206Z,14.99
2022-09-23T16:16:39.052Z,15.01
2022-09-23T16:19:04.877Z,15.04
2022-09-23T16:21:30.684Z,15.02
2022-09-23T16:23:58.471Z,14.96
2022-09-23T16:26:31.858Z,15.03
2022-09-23T16:28:58.879Z,14.87
2022-09-23T16:31:26.313Z,14.74
2022-09-23T16:33:52.764Z,14.76
2022-09-23T16:36:28.109Z,14.58
2022-09-23T16:38:57.318Z,14.59
2022-09-23T16:41:25.308Z,14.61
2022-09-23T16:43:52.774Z,14.60
2022-09-23T16:46:20.067Z,14.52
2022-09-23T16:48:52.145Z,14.48
2022-09-23T16:51:21.629Z,14.52
2022-09-23T16:53:48.878Z,14.39
2022-09-23T16:56:16.248Z,14.41
2022-09-23T16:58:43.283Z,14.45
2022-09-23T17:01:32.730Z,14.36
2022-09-23T17:03:58.758Z,14.36
2022-09-23T17:06:26.743Z,14.33
2022-09-23T17:08:53.405Z,14.24
2022-09-23T17:11:20.065Z,14.25
2022-09-23T17:13:46.848Z,14.27
2022-09-23T17:16:28.236Z,14.23
2022-09-23T17:18:55.049Z,14.12
2022-09-23T17:21:25.897Z,14.17
2022-09-23T17:23:55.805Z,14.15
2022-09-23T17:26:24.200Z,14.20
2022-09-23T17:28:52.173Z,14.13
2022-09-23T17:31:18.215Z,14.00
2022-09-23T17:33:44.160Z,13.97
2022-09-23T17:36:12.047Z,14.04
2022-09-23T17:38:40.934Z,14.06
2022-09-23T17:41:07.708Z,13.97
2022-09-23T17:43:33.822Z,13.81
2022-09-23T17:46:05.825Z,13.94
2022-09-23T17:48:33.948Z,13.84
2022-09-23T17:51:02.534Z,13.79
2022-09-23T17:53:31.624Z,13.80
2022-09-23T17:55:59.986Z,13.87
2022-09-23T17:58:28.053Z,13.73
2022-09-23T18:00:55.455Z,13.83
2022-09-23T18:03:22.978Z,13.78
2022-09-23T18:05:48.947Z,13.69
2022-09-23T18:08:14.840Z,13.59
2022-09-23T18:10:40.779Z,13.67
2022-09-23T18:13:06.610Z,13.59
2022-09-23T18:15:36.883Z,13.58
2022-09-23T18:18:03.397Z,13.54
2022-09-23T18:20:32.043Z,13.59
2022-09-23T18:22:58.709Z,13.64
2022-09-23T18:25:38.599Z,13.63
2022-09-23T18:28:05.506Z,13.58
2022-09-23T18:30:32.173Z,13.58
2022-09-23T18:32:58.979Z,13.62
2022-09-23T18:35:24.876Z,13.55
2022-09-23T18:37:50.625Z,13.51
2022-09-23T18:40:18.032Z,13.52
2022-09-23T18:42:43.823Z,13.51
2022-09-23T18:45:11.164Z,13.34
2022-09-23T18:47:56.230Z,13.29
2022-09-23T18:50:42.184Z,13.40
2022-09-23T18:53:08.335Z,13.43
2022-09-23T18:55:35.466Z,13.25
2022-09-23T18:58:01.600Z,13.14
2022-09-23T19:00:27.802Z,13.12
2022-09-23T19:02:53.670Z,13.17
2022-09-23T19:05:19.438Z,13.20
2022-09-23T19:07:45.249Z,13.17
2022-09-23T19:10:11.016Z,13.22
2022-09-23T19:12:36.836Z,13.14
2022-09-23T19:15:05.746Z,12.91
2022-09-23T19:17:31.718Z,13.03
2022-09-23T19:19:57.819Z,13.05
2022-09-23T19:22:23.968Z,13.13
2022-09-23T19:24:49.705Z,13.10
2022-09-23T19:27:15.497Z,13.06
2022-09-23T19:29:41.328Z,13.16
2022-09-23T19:32:07.080Z,13.10
2022-09-23T19:34:34.339Z,13.08
2022-09-23T19:37:03.629Z,13.15
2022-09-23T19:39:30.946Z,13.41
2022-09-23T19:41:58.035Z,13.29
2022-09-23T19:44:25.922Z,13.27
2022-09-23T19:46:56.309Z,13.35
2022-09-23T19:49:23.741Z,13.31
2022-09-23T19:51:49.621Z,13.21
2022-09-23T19:54:19.770Z,13.21
2022-09-23T19:56:46.913Z,13.25
2022-09-23T19:59:17.776Z,13.27
2022-09-23T20:01:44.453Z,13.23
2022-09-23T20:04:10.619Z,13.14
2022-09-23T20:06:37.558Z,13.04
2022-09-23T20:09:03.724Z,13.02
2022-09-23T20:11:30.711Z,13.02
2022-09-23T20:14:04.108Z,13.03
2022-09-23T20:16:34.446Z,13.04
2022-09-23T20:19:02.386Z,13.09
2022-09-23T20:21:28.739Z,13.04
2022-09-23T20:23:55.040Z,13.02
2022-09-23T20:26:39.629Z,12.96
2022-09-23T20:29:05.722Z,12.88
2022-09-23T20:31:33.651Z,13.01
2022-09-23T20:33:59.854Z,12.96
2022-09-23T20:36:27.989Z,13.00
2022-09-23T20:39:01.233Z,12.97
2022-09-23T20:41:29.295Z,13.00
2022-09-23T20:43:58.683Z,13.04
2022-09-23T20:46:25.398Z,13.07
2022-09-23T20:48:51.409Z,13.03
2022-09-23T20:51:17.219Z,13.02
2022-09-23T20:53:45.049Z,13.06
2022-09-23T20:56:10.966Z,13.01
2022-09-23T20:58:36.775Z,13.02
2022-09-23T21:01:05.674Z,13.04
2022-09-23T21:03:32.176Z,13.06
2022-09-23T21:06:03.105Z,13.03
2022-09-23T21:08:30.322Z,13.08
2022-09-23T21:11:01.752Z,13.05
2022-09-23T21:13:29.020Z,13.06
2022-09-23T21:15:54.905Z,13.04
2022-09-23T21:18:22.688Z,13.08
2022-09-23T21:20:56.109Z,13.05
2022-09-23T21:23:26.488Z,13.03
2022-09-23T21:26:10.427Z,13.05
2022-09-23T21:28:40.635Z,13.06
2022-09-23T21:31:09.331Z,13.01
2022-09-23T21:33:38.434Z,13.04
2022-09-23T21:36:06.256Z,13.01
2022-09-23T21:38:38.350Z,13.05
2022-09-23T21:41:07.008Z,13.08
2022-09-23T21:43:35.323Z,13.04
2022-09-23T21:46:03.828Z,12.98
2022-09-23T21:48:31.319Z,13.08
2022-09-23T21:50:59.248Z,13.08
2022-09-23T21:53:28.087Z,13.04
2022-09-23T21:55:59.724Z,13.02
2022-09-23T21:58:26.701Z,13.00
2022-09-23T22:00:52.581Z,12.96
2022-09-23T22:03:18.477Z,12.78
2022-09-23T22:05:44.292Z,12.80
2022-09-23T22:08:10.193Z,12.86
2022-09-23T22:10:37.061Z,12.76
2022-09-23T22:13:04.022Z,12.74
2022-09-23T22:15:34.983Z,12.77
2022-09-23T22:18:01.642Z,12.74
2022-09-23T22:20:27.553Z,12.76
2022-09-23T22:22:53.773Z,12.75
2022-09-23T22:25:20.443Z,12.78
2022-09-23T22:28:04.817Z,12.65
2022-09-23T22:30:49.422Z,12.63
2022-09-23T22:33:15.645Z,12.42
2022-09-23T22:35:41.380Z,12.52
2022-09-23T22:38:07.170Z,12.58
2022-09-23T22:40:37.324Z,12.57
2022-09-23T22:43:03.178Z,12.55
2022-09-23T22:45:28.903Z,12.50
2022-09-23T22:47:54.723Z,12.51
2022-09-23T22:50:20.488Z,12.47
2022-09-23T22:52:46.438Z,12.51
2022-09-23T22:55:12.349Z,12.47
2022-09-23T22:57:38.183Z,12.48
2022-09-23T23:00:06.033Z,12.45
2022-09-23T23:02:32.314Z,12.38
2022-09-23T23:04:59.706Z,12.54
2022-09-23T23:07:25.679Z,12.56
2022-09-23T23:09:52.169Z,12.46
2022-09-23T23:12:19.407Z,12.45
2022-09-23T23:14:46.095Z,12.37
2022-09-23T23:17:12.344Z,12.42
2022-09-23T23:19:38.474Z,12.53
2022-09-23T23:22:04.854Z,12.47
2022-09-23T23:24:30.867Z,12.40
2022-09-23T23:26:56.719Z,12.36
2022-09-23T23:29:22.791Z,12.39
2022-09-23T23:31:49.038Z,12.40
2022-09-23T23:34:20.014Z,12.37
2022-09-23T23:36:53.816Z,12.30
2022-09-23T23:39:22.787Z,12.43
2022-09-23T23:41:54.712Z,12.44
2022-09-23T23:44:22.848Z,12.56
2022-09-23T23:46:48.727Z,12.42
2022-09-23T23:49:14.598Z,12.44
2022-09-23T23:51:40.493Z,12.46
2022-09-23T23:54:06.436Z,12.42
2022-09-23T23:56:32.290Z,12.47
2022-09-23T23:59:00.408Z,12.38
